createdAt,value
2019-04-23T00:02:29.774Z,98163.47
2019-04-23T00:05:02.121Z,98163.47
2019-04-23T00:07:44.339Z,98160.41
2019-04-23T00:10:12.641Z,98156.95
2019-04-23T00:12:43.830Z,98152.65
2019-04-23T00:15:07.515Z,98145.29
2019-04-23T00:17:37.119Z,98143.12
2019-04-23T00:20:12.079Z,98139.23
2019-04-23T00:22:44.477Z,98127.58
2019-04-23T00:25:38.085Z,98134.45
2019-04-23T00:27:42.811Z,98132.72
2019-04-23T00:30:10.063Z,98123.21
2019-04-23T00:32:39.740Z,98126.20
2019-04-23T00:35:16.047Z,98123.16
2019-04-23T00:37:49.564Z,98123.57
2019-04-23T00:40:15.387Z,98122.27
2019-04-23T00:45:16.766Z,98114.48
2019-04-23T00:47:46.114Z,98117.91
2019-04-23T00:52:45.657Z,98106.23
2019-04-23T00:55:14.482Z,98110.93
2019-04-23T00:57:43.546Z,98116.06
2019-04-23T01:00:19.306Z,98105.27
2019-04-23T01:02:49.316Z,98103.09
2019-04-23T01:05:20.297Z,98095.31
2019-04-23T01:07:48.318Z,98097.03
2019-04-23T01:10:25.615Z,98095.29
2019-04-23T01:15:18.931Z,98094.84
2019-04-23T01:20:22.620Z,98090.95
2019-04-23T01:22:31.580Z,98092.25
2019-04-23T01:25:13.401Z,98087.89
2019-04-23T01:28:02.129Z,98089.60
2019-04-23T01:30:34.121Z,98082.25
2019-04-23T01:33:03.645Z,98078.36
2019-04-23T01:35:39.609Z,98076.61
2019-04-23T01:38:04.488Z,98074.45
2019-04-23T01:40:39.365Z,98074.44
2019-04-23T01:43:02.780Z,98075.30
2019-04-23T01:45:29.677Z,98071.84
2019-04-23T01:48:18.502Z,98067.95
2019-04-23T01:50:43.793Z,98061.47
2019-04-23T01:53:14.352Z,98056.30
2019-04-23T01:58:27.568Z,98042.94
2019-04-23T02:00:40.685Z,98046.80
2019-04-23T02:03:13.123Z,98037.75
2019-04-23T02:05:43.222Z,98034.30
2019-04-23T02:08:08.414Z,98029.55
2019-04-23T02:10:49.026Z,98030.84
2019-04-23T02:13:17.482Z,98028.66
2019-04-23T02:15:46.210Z,98020.91
2019-04-23T02:18:11.751Z,98017.47
2019-04-23T02:20:44.394Z,98014.89
2019-04-23T02:23:34.211Z,98014.47
2019-04-23T02:28:19.024Z,98006.25
2019-04-23T02:31:12.148Z,97998.09
2019-04-23T02:41:04.390Z,97983.45
2019-04-23T02:43:16.067Z,97975.70
2019-04-23T02:46:04.553Z,97979.98
2019-04-23T02:48:24.883Z,97974.36
2019-04-23T02:50:48.876Z,97970.05
2019-04-23T02:53:44.754Z,97965.72
2019-04-23T02:58:28.247Z,97957.55
2019-04-23T03:03:38.648Z,97954.11
2019-04-23T03:05:57.425Z,97951.12
2019-04-23T03:08:26.790Z,97951.13
2019-04-23T03:13:37.640Z,97948.14
2019-04-23T03:21:31.204Z,97942.05
2019-04-23T03:24:09.330Z,97945.91
2019-04-23T03:35:43.131Z,97938.98
2019-04-23T03:36:13.946Z,97934.69
2019-04-23T03:38:55.532Z,97930.84
2019-04-23T03:43:57.783Z,97931.72
2019-04-23T03:46:46.679Z,97928.72
2019-04-23T03:49:16.888Z,97928.73
2019-04-23T03:51:38.270Z,97930.88
2019-04-23T03:57:00.944Z,97927.02
2019-04-23T04:09:18.709Z,97924.84
2019-04-23T04:11:33.740Z,97927.42
2019-04-23T04:14:15.247Z,97928.29
2019-04-23T04:16:34.221Z,97927.42
2019-04-23T04:19:08.922Z,97925.27
2019-04-23T04:21:36.916Z,97935.58
2019-04-23T04:24:17.287Z,97926.10
2019-04-23T04:29:21.493Z,97919.24
2019-04-23T04:31:42.361Z,97923.09
2019-04-23T04:34:21.443Z,97925.69
2019-04-23T04:36:46.001Z,97923.98
2019-04-23T04:39:19.747Z,97921.39
2019-04-23T04:41:31.219Z,97920.11
2019-04-23T04:44:20.346Z,97916.67
2019-04-23T04:51:41.843Z,97909.81
2019-04-23T04:54:10.080Z,97901.66
2019-04-23T04:59:06.099Z,97902.58
2019-04-23T05:01:31.358Z,97896.13
2019-04-23T05:04:00.087Z,97903.88
2019-04-23T05:09:11.985Z,97898.31
2019-04-23T05:11:44.033Z,97896.63
2019-04-23T05:14:00.382Z,97892.77
2019-04-23T05:24:01.408Z,97893.20
2019-04-23T05:29:06.312Z,97894.48
2019-04-23T05:36:30.866Z,97890.67
2019-04-23T05:41:29.511Z,97892.00
2019-04-23T05:44:05.091Z,97885.98
2019-04-23T05:46:32.824Z,97891.59
2019-04-23T05:49:04.562Z,97889.88
2019-04-23T05:51:38.781Z,97889.05
2019-04-23T05:54:01.297Z,97895.53
2019-04-23T05:56:27.760Z,97881.75
2019-04-23T06:04:10.453Z,97875.35
2019-04-23T06:06:54.172Z,97879.27
2019-04-23T06:09:09.115Z,97874.13
2019-04-23T06:11:45.068Z,97868.56
2019-04-23T06:14:06.429Z,97871.56
2019-04-23T06:16:35.669Z,97871.16
2019-04-23T06:19:11.091Z,97865.59
2019-04-23T06:24:09.988Z,97863.44
2019-04-23T06:29:11.226Z,97858.72
2019-04-23T06:31:39.319Z,97856.14
2019-04-23T06:34:03.832Z,97855.71
2019-04-23T06:36:32.429Z,97850.99
2019-04-23T06:41:41.830Z,97844.95
2019-04-23T06:44:18.093Z,97845.39
2019-04-23T06:46:39.234Z,97839.78
2019-04-23T06:49:10.617Z,97841.11
2019-04-23T06:51:48.012Z,97842.83
2019-04-23T06:54:04.425Z,97838.92
2019-04-23T06:56:43.269Z,97832.47
2019-04-23T06:59:09.631Z,97832.48
2019-04-23T07:01:36.567Z,97831.18
2019-04-23T07:04:05.561Z,97835.94
2019-04-23T07:06:58.290Z,97830.31
2019-04-23T07:11:34.223Z,97825.98
2019-04-23T07:13:58.779Z,97823.83
2019-04-23T07:16:32.908Z,97820.78
2019-04-23T07:19:12.680Z,97816.93
2019-04-23T07:21:42.028Z,97812.61
2019-04-23T07:24:05.479Z,97814.34
2019-04-23T07:26:41.079Z,97817.36
2019-04-23T07:29:21.380Z,97807.40
2019-04-23T07:31:37.933Z,97801.35
2019-04-23T07:36:34.195Z,97798.28
2019-04-23T07:42:02.911Z,97791.37
2019-04-23T07:44:45.180Z,97797.41
2019-04-23T07:47:19.006Z,97794.39
2019-04-23T07:49:38.479Z,97794.34
2019-04-23T07:52:24.202Z,97784.84
2019-04-23T07:54:39.864Z,97789.09
2019-04-23T07:57:15.325Z,97781.81
2019-04-23T07:59:47.351Z,97782.60
2019-04-23T08:02:15.986Z,97782.16
2019-04-23T08:04:47.619Z,97781.68
2019-04-23T08:07:12.834Z,97773.88
2019-04-23T08:09:43.607Z,97778.62
2019-04-23T08:12:11.613Z,97773.81
2019-04-23T08:14:42.664Z,97762.56
2019-04-23T08:17:07.104Z,97772.05
2019-04-23T08:19:41.000Z,97766.38
2019-04-23T08:24:59.207Z,97766.77
2019-04-23T08:27:34.662Z,97759.85
2019-04-23T08:30:07.558Z,97755.87
2019-04-23T08:32:35.173Z,97758.38
2019-04-23T08:35:06.405Z,97757.05
2019-04-23T08:37:56.994Z,97749.66
2019-04-23T08:40:12.021Z,97753.89
2019-04-23T08:43:34.845Z,97752.55
2019-04-23T08:48:15.490Z,97747.20
2019-04-23T08:53:17.741Z,97742.60
2019-04-23T08:55:38.463Z,97741.23
2019-04-23T08:58:06.017Z,97740.27
2019-04-23T09:00:49.858Z,97736.77
2019-04-23T09:03:12.865Z,97744.44
2019-04-23T09:10:42.293Z,97731.91
2019-04-23T09:13:35.018Z,97731.48
2019-04-23T09:18:12.669Z,97732.28
2019-04-23T09:20:32.740Z,97723.00
2019-04-23T09:23:16.283Z,97718.62
2019-04-23T09:25:49.778Z,97723.66
2019-04-23T09:28:24.139Z,97711.48
2019-04-23T09:30:48.756Z,97715.16
2019-04-23T09:33:27.901Z,97726.19
2019-04-23T09:36:18.486Z,97714.37
2019-04-23T09:38:39.666Z,97712.95
2019-04-23T09:41:37.854Z,97711.63
2019-04-23T09:44:25.932Z,97703.25
2019-04-23T09:46:49.601Z,97711.14
2019-04-23T09:49:14.808Z,97706.27
2019-04-23T09:51:49.285Z,97697.77
2019-04-23T09:54:09.797Z,97702.39
2019-04-23T09:56:42.319Z,97705.27
2019-04-23T09:59:17.506Z,97703.48
2019-04-23T10:01:32.787Z,97704.14
2019-04-23T10:03:56.863Z,97705.72
2019-04-23T10:06:20.288Z,97702.27
2019-04-23T10:08:47.508Z,97701.16
2019-04-23T10:11:13.608Z,97704.93
2019-04-23T10:13:42.801Z,97695.19
2019-04-23T10:16:15.364Z,97695.57
2019-04-23T10:18:41.519Z,97696.55
2019-04-23T10:21:11.088Z,97699.06
2019-04-23T10:23:41.140Z,97698.03
2019-04-23T10:26:10.073Z,97704.73
2019-04-23T10:28:56.135Z,97692.45
2019-04-23T10:31:25.141Z,97696.91
2019-04-23T10:33:53.464Z,97691.39
2019-04-23T10:36:27.184Z,97688.84
2019-04-23T10:39:00.579Z,97673.94
2019-04-23T10:41:22.506Z,97677.22
2019-04-23T10:43:56.171Z,97679.69
2019-04-23T10:47:03.004Z,97670.22
2019-04-23T10:49:53.616Z,97670.41
2019-04-23T10:54:40.888Z,97655.14
2019-04-23T10:57:11.032Z,97661.56
2019-04-23T11:07:28.387Z,97659.08
2019-04-23T11:09:59.580Z,97662.75
2019-04-23T11:12:46.408Z,97653.84
2019-04-23T11:17:46.520Z,97657.41
2019-04-23T11:25:29.954Z,97661.05
2019-04-23T11:27:42.482Z,97655.66
2019-04-23T11:30:29.345Z,97649.16
2019-04-23T11:35:22.716Z,97654.31
2019-04-23T11:38:22.143Z,97649.87
2019-04-23T11:40:23.286Z,97647.99
2019-04-23T11:42:49.465Z,97645.22
2019-04-23T11:45:30.584Z,97650.58
2019-04-23T11:48:22.112Z,97647.35
2019-04-23T11:50:41.298Z,97651.65
2019-04-23T11:52:51.574Z,97657.48
2019-04-23T11:58:02.709Z,97657.85
2019-04-23T12:02:51.320Z,97650.59
2019-04-23T12:05:29.538Z,97653.17
2019-04-23T12:08:20.594Z,97657.33
2019-04-23T12:12:55.661Z,97655.03
2019-04-23T12:15:37.580Z,97653.69
2019-04-23T12:20:33.194Z,97646.27
2019-04-23T12:23:08.946Z,97647.67
2019-04-23T12:27:44.090Z,97642.30
2019-04-23T12:30:34.230Z,97640.06
2019-04-23T12:33:12.981Z,97637.87
2019-04-23T12:35:22.538Z,97628.78
2019-04-23T12:37:56.167Z,97627.06
2019-04-23T12:40:25.175Z,97630.09
2019-04-23T12:45:35.509Z,97627.31
2019-04-23T12:48:02.148Z,97630.69
2019-04-23T12:55:39.069Z,97623.98
2019-04-23T13:00:36.915Z,97607.54
2019-04-23T13:02:58.718Z,97610.34
2019-04-23T13:05:27.029Z,97613.71
2019-04-23T13:07:58.522Z,97605.72
2019-04-23T13:10:44.076Z,97613.71
2019-04-23T13:15:29.330Z,97604.72
2019-04-23T13:18:03.017Z,97594.63
2019-04-23T13:20:27.650Z,97598.80
2019-04-23T13:23:01.529Z,97596.22
2019-04-23T13:25:39.837Z,97595.24
2019-04-23T13:30:46.196Z,97590.95
2019-04-23T13:33:26.713Z,97585.89
2019-04-23T13:38:17.406Z,97588.12
2019-04-23T13:41:01.236Z,97573.09
2019-04-23T13:43:19.501Z,97570.70
2019-04-23T13:45:58.896Z,97566.05
2019-04-23T13:48:10.756Z,97559.24
2019-04-23T13:50:50.065Z,97562.81
2019-04-23T13:53:28.768Z,97552.55
2019-04-23T13:55:42.543Z,97547.52
2019-04-23T13:58:32.868Z,97554.00
2019-04-23T14:00:52.574Z,97549.40
2019-04-23T14:03:19.768Z,97553.04
2019-04-23T14:06:00.971Z,97545.25
2019-04-23T14:08:41.579Z,97544.55
2019-04-23T14:10:55.425Z,97545.66
2019-04-23T14:13:51.612Z,97546.88
2019-04-23T14:16:05.527Z,97543.77
2019-04-23T14:21:08.642Z,97542.77
2019-04-23T14:26:15.927Z,97538.97
2019-04-23T14:28:37.394Z,97536.88
2019-04-23T14:36:02.843Z,97542.92
2019-04-23T14:41:09.936Z,97533.97
2019-04-23T14:43:44.800Z,97531.84
2019-04-23T14:48:47.965Z,97530.88
2019-04-23T14:53:53.238Z,97533.13
2019-04-23T14:56:26.379Z,97536.23
2019-04-23T14:58:50.826Z,97537.30
2019-04-23T15:01:27.224Z,97534.24
2019-04-23T15:06:23.875Z,97534.30
2019-04-23T15:08:50.121Z,97533.63
2019-04-23T15:13:46.567Z,97531.45
2019-04-23T15:16:17.395Z,97529.19
2019-04-23T15:19:02.683Z,97521.56
2019-04-23T15:24:00.210Z,97528.33
2019-04-23T15:28:29.961Z,97526.06
2019-04-23T15:41:29.458Z,97516.38
2019-04-23T15:43:57.721Z,97507.16
2019-04-23T15:46:25.200Z,97521.39
2019-04-23T15:49:05.608Z,97520.05
2019-04-23T15:51:28.567Z,97516.28
2019-04-23T15:53:51.702Z,97521.45
2019-04-23T15:56:26.830Z,97524.02
2019-04-23T15:59:04.334Z,97518.44
2019-04-23T16:01:31.904Z,97531.76
2019-04-23T16:03:24.476Z,97525.50
2019-04-23T16:05:53.051Z,97526.33
2019-04-23T16:08:59.375Z,97526.22
2019-04-23T16:11:36.464Z,97525.00
2019-04-23T16:14:13.423Z,97520.52
2019-04-23T16:16:28.181Z,97515.86
2019-04-23T16:21:30.240Z,97519.55
2019-04-23T16:23:52.637Z,97520.53
2019-04-23T16:26:31.276Z,97527.48
2019-04-23T16:29:21.159Z,97523.89
2019-04-23T16:31:29.475Z,97526.17
2019-04-23T16:34:08.623Z,97529.89
2019-04-23T16:36:23.116Z,97520.12
2019-04-23T16:39:01.978Z,97526.64
2019-04-23T16:41:48.440Z,97529.08
2019-04-23T16:46:27.257Z,97527.46
2019-04-23T16:49:06.785Z,97532.22
2019-04-23T16:51:29.565Z,97529.28
2019-04-23T16:54:03.083Z,97529.91
2019-04-23T16:59:08.465Z,97523.48
2019-04-23T17:01:28.001Z,97524.37
2019-04-23T17:04:03.848Z,97527.85
2019-04-23T17:06:30.941Z,97523.52
2019-04-23T17:08:57.108Z,97525.77
2019-04-23T17:11:26.971Z,97532.53
2019-04-23T17:14:07.039Z,97528.27
2019-04-23T17:19:01.976Z,97537.84
2019-04-23T17:21:32.631Z,97534.74
2019-04-23T17:24:08.112Z,97533.75
2019-04-23T17:26:29.063Z,97527.07
2019-04-23T17:31:35.245Z,97536.47
2019-04-23T17:36:45.847Z,97535.97
2019-04-23T17:39:25.426Z,97531.89
2019-04-23T17:42:00.132Z,97533.31
2019-04-23T17:44:24.502Z,97530.80
2019-04-23T17:46:51.007Z,97525.66
2019-04-23T17:49:15.591Z,97539.86
2019-04-23T17:51:53.024Z,97547.80
2019-04-23T17:54:32.210Z,97540.50
2019-04-23T17:59:23.001Z,97539.91
2019-04-23T18:02:10.322Z,97533.09
2019-04-23T18:06:53.861Z,97546.09
2019-04-23T18:12:12.951Z,97547.80
2019-04-23T18:14:16.476Z,97544.42
2019-04-23T18:17:10.816Z,97541.58
2019-04-23T18:19:20.696Z,97546.11
2019-04-23T18:22:19.074Z,97551.49
2019-04-23T18:24:59.078Z,97556.91
2019-04-23T18:27:23.526Z,97555.75
2019-04-23T18:30:01.009Z,97560.72
2019-04-23T18:32:58.360Z,97557.47
2019-04-23T18:37:32.535Z,97555.23
2019-04-23T18:39:52.055Z,97558.44
2019-04-23T18:42:31.772Z,97561.91
2019-04-23T18:45:03.257Z,97567.33
2019-04-23T18:47:40.193Z,97572.77
2019-04-23T18:50:21.953Z,97568.57
2019-04-23T18:54:56.958Z,97571.08
2019-04-23T18:57:36.775Z,97575.22
2019-04-23T19:00:18.836Z,97577.27
2019-04-23T19:07:51.925Z,97600.34
2019-04-23T19:18:12.917Z,97602.60
2019-04-23T19:20:46.441Z,97603.34
2019-04-23T19:25:25.938Z,97611.11
2019-04-23T19:28:09.924Z,97617.43
2019-04-23T19:30:46.127Z,97614.61
2019-04-23T19:33:13.685Z,97613.95
2019-04-23T19:36:01.399Z,97619.34
2019-04-23T19:38:13.274Z,97618.23
2019-04-23T19:40:49.379Z,97625.80
2019-04-23T19:43:12.120Z,97622.97
2019-04-23T19:50:48.989Z,97638.08
2019-04-23T19:56:08.883Z,97639.20
2019-04-23T19:58:38.419Z,97639.73
2019-04-23T20:03:37.545Z,97642.59
2019-04-23T20:06:06.340Z,97639.24
2019-04-23T20:08:49.381Z,97639.41
2019-04-23T20:11:04.839Z,97638.69
2019-04-23T20:13:41.117Z,97640.06
2019-04-23T20:18:41.545Z,97644.16
2019-04-23T20:20:58.946Z,97647.78
2019-04-23T20:24:02.974Z,97646.97
2019-04-23T20:26:15.639Z,97651.81
2019-04-23T20:32:25.794Z,97648.99
2019-04-23T20:36:25.830Z,97650.42
2019-04-23T20:39:03.859Z,97644.86
2019-04-23T20:41:21.773Z,97654.01
2019-04-23T20:44:01.419Z,97653.64
2019-04-23T20:46:26.179Z,97653.27
2019-04-23T20:48:56.947Z,97660.30
2019-04-23T20:51:16.207Z,97650.38
2019-04-23T20:53:57.305Z,97659.09
2019-04-23T20:56:30.096Z,97648.73
2019-04-23T20:58:54.703Z,97659.65
2019-04-23T21:06:47.002Z,97657.19
2019-04-23T21:11:29.223Z,97653.02
2019-04-23T21:14:22.824Z,97653.48
2019-04-23T21:16:26.103Z,97660.05
2019-04-23T21:21:27.863Z,97654.13
2019-04-23T21:26:17.523Z,97662.84
2019-04-23T21:28:54.260Z,97662.09
2019-04-23T21:36:40.408Z,97673.44
2019-04-23T21:39:29.207Z,97671.38
2019-04-23T21:44:21.093Z,97668.02
2019-04-23T21:46:56.619Z,97671.98
2019-04-23T21:54:30.723Z,97669.89
2019-04-23T21:56:55.441Z,97666.89
2019-04-23T21:59:24.948Z,97670.86
2019-04-23T22:01:56.820Z,97674.76
2019-04-23T22:06:52.758Z,97675.63
2019-04-23T22:09:27.114Z,97676.86
2019-04-23T22:14:27.004Z,97682.58
2019-04-23T22:19:19.764Z,97686.08
2019-04-23T22:24:19.411Z,97692.56
2019-04-23T22:26:54.551Z,97686.48
2019-04-23T22:29:33.086Z,97691.69
2019-04-23T22:32:13.065Z,97689.51
2019-04-23T22:34:36.925Z,97689.95
2019-04-23T22:37:17.720Z,97694.69
2019-04-23T22:39:31.985Z,97692.50
2019-04-23T22:42:08.834Z,97692.00
2019-04-23T22:44:39.590Z,97695.88
2019-04-23T22:47:03.984Z,97691.95
2019-04-23T22:49:45.355Z,97694.11
2019-04-23T22:54:39.765Z,97702.77
2019-04-23T22:57:04.710Z,97704.97
2019-04-23T22:59:47.074Z,97707.57
2019-04-23T23:02:08.914Z,97704.08
2019-04-23T23:04:51.666Z,97707.14
2019-04-23T23:07:07.697Z,97703.25
2019-04-23T23:09:49.004Z,97711.48
2019-04-23T23:12:13.902Z,97718.84
2019-04-23T23:14:48.744Z,97706.72
2019-04-23T23:22:11.741Z,97720.63
2019-04-23T23:24:53.722Z,97718.07
2019-04-23T23:27:05.498Z,97718.97
2019-04-23T23:29:49.652Z,97722.03
2019-04-23T23:32:14.609Z,97718.65
2019-04-23T23:35:00.990Z,97717.41
2019-04-23T23:37:12.139Z,97717.02
2019-04-23T23:42:11.101Z,97721.45
2019-04-23T23:47:18.159Z,97715.86
2019-04-23T23:49:43.856Z,97716.72
2019-04-23T23:54:43.758Z,97719.41
